createdAt,value
2018-09-04T00:02:12.288Z,16.90
2018-09-04T00:04:41.582Z,16.57
2018-09-04T00:07:10.724Z,17.47
2018-09-04T00:09:39.862Z,17.07
2018-09-04T00:12:08.911Z,17.77
2018-09-04T00:14:37.911Z,17.83
2018-09-04T00:17:07.294Z,18.57
2018-09-04T00:19:36.302Z,16.70
2018-09-04T00:22:05.724Z,17.57
2018-09-04T00:24:35.064Z,16.57
2018-09-04T00:27:04.439Z,18.20
2018-09-04T00:29:33.525Z,17.27
2018-09-04T00:32:02.611Z,17.27
2018-09-04T00:34:31.805Z,16.40
2018-09-04T00:37:00.968Z,16.37
2018-09-04T00:39:30.055Z,18.23
2018-09-04T00:41:59.142Z,17.17
2018-09-04T00:44:28.231Z,17.53
2018-09-04T00:46:57.446Z,18.20
2018-09-04T00:49:26.510Z,18.23
2018-09-04T00:51:55.543Z,18.90
2018-09-04T00:54:24.566Z,17.47
2018-09-04T00:56:53.621Z,18.13
2018-09-04T00:59:22.677Z,17.27
2018-09-04T01:01:51.726Z,17.97
2018-09-04T01:04:20.813Z,18.10
2018-09-04T01:06:49.859Z,19.23
2018-09-04T01:09:21.188Z,19.57
2018-09-04T01:11:50.665Z,18.70
2018-09-04T01:14:19.702Z,19.17
2018-09-04T01:16:48.714Z,19.53
2018-09-04T01:19:17.773Z,18.73
2018-09-04T01:21:46.827Z,18.80
2018-09-04T01:24:16.276Z,17.53
2018-09-04T01:26:45.305Z,17.47
2018-09-04T01:29:14.478Z,19.80
2018-09-04T01:31:43.537Z,19.77
2018-09-04T01:34:12.623Z,19.97
2018-09-04T01:36:41.768Z,19.93
2018-09-04T01:39:10.851Z,20.57
2018-09-04T01:41:39.952Z,19.20
2018-09-04T01:44:09.227Z,20.27
2018-09-04T01:46:38.303Z,19.97
2018-09-04T01:49:07.338Z,20.70
2018-09-04T01:51:36.386Z,19.47
2018-09-04T01:54:05.439Z,20.37
2018-09-04T01:56:34.499Z,19.50
2018-09-04T01:59:03.909Z,20.07
2018-09-04T02:01:32.961Z,19.87
2018-09-04T02:04:02.039Z,18.90
2018-09-04T02:06:31.067Z,19.77
2018-09-04T02:09:00.086Z,20.40
2018-09-04T02:11:29.234Z,21.03
2018-09-04T02:13:58.302Z,20.70
2018-09-04T02:16:27.360Z,21.27
2018-09-04T02:18:56.935Z,20.53
2018-09-04T02:21:25.987Z,20.70
2018-09-04T02:23:55.033Z,20.53
2018-09-04T02:26:24.331Z,19.20
2018-09-04T02:28:53.600Z,20.20
2018-09-04T02:31:22.760Z,19.40
2018-09-04T02:33:51.956Z,21.10
2018-09-04T02:36:21.090Z,20.90
2018-09-04T02:38:50.164Z,22.57
2018-09-04T02:41:19.411Z,21.77
2018-09-04T02:43:48.428Z,22.17
2018-09-04T02:46:17.710Z,22.27
2018-09-04T02:48:46.807Z,22.53
2018-09-04T02:51:15.921Z,22.17
2018-09-04T02:53:45.203Z,23.87
2018-09-04T02:56:14.261Z,22.53
2018-09-04T02:58:43.300Z,22.40
2018-09-04T03:01:12.314Z,22.10
2018-09-04T03:03:41.403Z,22.27
2018-09-04T03:06:10.436Z,22.00
2018-09-04T03:08:39.494Z,24.20
2018-09-04T03:11:08.587Z,22.73
2018-09-04T03:13:37.752Z,23.87
2018-09-04T03:16:07.346Z,23.53
2018-09-04T03:18:36.532Z,23.23
2018-09-04T03:21:06.278Z,23.10
2018-09-04T03:23:35.336Z,23.43
2018-09-04T03:26:04.432Z,21.83
2018-09-04T03:28:33.691Z,21.20
2018-09-04T03:31:02.801Z,22.57
2018-09-04T03:33:31.846Z,19.63
2018-09-04T03:36:00.987Z,22.50
2018-09-04T03:38:30.123Z,23.13
2018-09-04T03:40:59.176Z,22.70
2018-09-04T03:43:28.286Z,25.00
2018-09-04T03:45:59.647Z,27.60
2018-09-04T03:48:28.673Z,24.93
2018-09-04T03:50:57.731Z,24.10
2018-09-04T03:53:26.768Z,23.53
2018-09-04T03:55:55.968Z,23.43
2018-09-04T03:58:25.010Z,24.70
2018-09-04T04:00:54.056Z,24.53
2018-09-04T04:03:23.156Z,26.13
2018-09-04T04:05:52.306Z,24.20
2018-09-04T04:08:21.327Z,25.00
2018-09-04T04:10:50.386Z,24.67
2018-09-04T04:13:19.429Z,24.53
2018-09-04T04:15:48.868Z,25.23
2018-09-04T04:18:18.330Z,24.93
2018-09-04T04:20:51.777Z,24.53
2018-09-04T04:23:20.835Z,25.50
2018-09-04T04:25:49.909Z,24.63
2018-09-04T04:28:19.115Z,26.83
2018-09-04T04:30:48.140Z,26.53
2018-09-04T04:33:17.256Z,26.23
2018-09-04T04:35:46.345Z,25.77
2018-09-04T04:38:15.384Z,24.47
2018-09-04T04:40:44.420Z,25.47
2018-09-04T04:43:13.517Z,27.13
2018-09-04T04:45:42.678Z,25.73
2018-09-04T04:48:12.557Z,25.03
2018-09-04T04:50:41.826Z,26.60
2018-09-04T04:53:10.859Z,25.87
2018-09-04T04:55:39.883Z,26.40
2018-09-04T04:58:08.910Z,26.53
2018-09-04T05:00:37.924Z,26.40
2018-09-04T05:03:09.401Z,25.70
2018-09-04T05:05:38.449Z,26.53
2018-09-04T05:08:07.469Z,25.37
2018-09-04T05:10:36.621Z,26.77
2018-09-04T05:13:05.985Z,25.90
2018-09-04T05:15:35.049Z,27.77
2018-09-04T05:18:04.436Z,25.63
2018-09-04T05:20:33.618Z,27.07
2018-09-04T05:23:02.606Z,25.40
2018-09-04T05:25:31.971Z,26.67
2018-09-04T05:28:01.023Z,24.77
2018-09-04T05:30:30.096Z,24.27
2018-09-04T05:33:04.342Z,25.97
2018-09-04T05:35:40.556Z,25.83
2018-09-04T05:38:09.590Z,26.03
2018-09-04T05:40:38.636Z,24.40
2018-09-04T05:43:09.595Z,27.93
2018-09-04T05:45:39.382Z,27.57
2018-09-04T05:48:11.126Z,28.80
2018-09-04T05:50:40.202Z,26.20
2018-09-04T05:53:09.302Z,28.97
2018-09-04T05:55:38.325Z,26.87
2018-09-04T05:58:07.366Z,28.57
2018-09-04T06:00:41.583Z,25.87
2018-09-04T06:03:10.954Z,28.60
2018-09-04T06:05:40.227Z,28.43
2018-09-04T06:08:09.917Z,26.43
2018-09-04T06:10:38.985Z,29.30
2018-09-04T06:13:08.182Z,27.87
2018-09-04T06:15:37.252Z,27.53
2018-09-04T06:18:06.757Z,27.53
2018-09-04T06:20:35.745Z,25.73
2018-09-04T06:23:05.217Z,26.47
2018-09-04T06:25:34.252Z,26.43
2018-09-04T06:28:04.424Z,24.97
2018-09-04T06:30:33.520Z,25.17
2018-09-04T06:33:02.597Z,25.93
2018-09-04T06:35:31.769Z,25.23
2018-09-04T06:38:01.081Z,26.13
2018-09-04T06:40:30.277Z,25.70
2018-09-04T06:42:59.309Z,24.70
2018-09-04T06:45:28.415Z,24.33
2018-09-04T06:47:57.425Z,24.83
2018-09-04T06:50:26.477Z,25.33
2018-09-04T06:52:55.509Z,23.10
2018-09-04T06:55:24.577Z,23.73
2018-09-04T06:57:53.860Z,24.67
2018-09-04T07:00:23.047Z,23.03
2018-09-04T07:02:52.106Z,24.90
2018-09-04T07:05:21.107Z,23.73
2018-09-04T07:07:50.141Z,22.77
2018-09-04T07:10:19.331Z,22.90
2018-09-04T07:12:48.376Z,23.83
2018-09-04T07:15:17.463Z,23.50
2018-09-04T07:17:46.453Z,24.20
2018-09-04T07:20:15.751Z,24.80
2018-09-04T07:22:44.755Z,24.30
2018-09-04T07:25:13.746Z,24.27
2018-09-04T07:27:43.050Z,23.20
2018-09-04T07:30:12.079Z,20.40
2018-09-04T07:32:41.207Z,22.33
2018-09-04T07:35:10.345Z,24.20
2018-09-04T07:37:39.454Z,23.23
2018-09-04T07:40:08.663Z,21.27
2018-09-04T07:42:37.717Z,21.33
2018-09-04T07:45:07.751Z,21.37
2018-09-04T07:47:36.787Z,20.13
2018-09-04T07:50:06.745Z,20.17
2018-09-04T07:52:35.771Z,23.00
2018-09-04T07:55:04.941Z,21.13
2018-09-04T07:57:34.058Z,21.50
2018-09-04T08:00:03.482Z,21.43
2018-09-04T08:02:34.191Z,19.67
2018-09-04T08:05:03.591Z,20.30
2018-09-04T08:07:32.834Z,21.87
2018-09-04T08:10:01.924Z,21.07
2018-09-04T08:12:31.094Z,20.13
2018-09-04T08:15:00.153Z,22.30
2018-09-04T08:17:29.197Z,21.93
2018-09-04T08:19:58.234Z,21.30
2018-09-04T08:22:27.304Z,21.00
2018-09-04T08:24:56.330Z,20.53
2018-09-04T08:27:25.354Z,21.33
2018-09-04T08:29:54.430Z,21.60
2018-09-04T08:32:23.443Z,20.40
2018-09-04T08:34:52.546Z,20.10
2018-09-04T08:37:21.825Z,20.60
2018-09-04T08:39:50.967Z,19.27
2018-09-04T08:42:20.221Z,21.97
2018-09-04T08:44:50.429Z,19.07
2018-09-04T08:47:20.258Z,20.03
2018-09-04T08:49:49.420Z,19.60
2018-09-04T08:52:18.470Z,16.03
2018-09-04T08:54:47.562Z,13.97
2018-09-04T08:57:16.656Z,11.63
2018-09-04T08:59:45.711Z,12.23
2018-09-04T09:02:14.958Z,12.07
2018-09-04T09:04:43.987Z,10.87
2018-09-04T09:07:13.019Z,10.07
2018-09-04T09:09:42.076Z,10.47
2018-09-04T09:12:11.263Z,10.17
2018-09-04T09:14:40.266Z,10.83
2018-09-04T09:17:09.306Z,11.43
2018-09-04T09:19:38.373Z,11.57
2018-09-04T09:22:07.469Z,9.47
2018-09-04T09:24:36.694Z,11.67
2018-09-04T09:27:06.063Z,8.07
2018-09-04T09:29:35.066Z,8.50
2018-09-04T09:32:04.111Z,8.63
2018-09-04T09:34:33.146Z,9.00
2018-09-04T09:37:02.276Z,7.67
2018-09-04T09:39:31.605Z,8.43
2018-09-04T09:42:00.637Z,8.30
2018-09-04T09:44:29.740Z,8.50
2018-09-04T09:47:02.555Z,8.33
2018-09-04T09:49:32.844Z,9.80
2018-09-04T09:52:02.155Z,8.10
2018-09-04T09:54:32.420Z,7.77
2018-09-04T09:57:01.503Z,7.90
2018-09-04T09:59:30.667Z,8.50
2018-09-04T10:02:05.091Z,7.93
2018-09-04T10:04:34.196Z,7.40
2018-09-04T10:07:03.386Z,7.03
2018-09-04T10:09:32.463Z,6.60
2018-09-04T10:12:02.116Z,6.53
2018-09-04T10:14:31.274Z,6.00
2018-09-04T10:17:00.409Z,6.03
2018-09-04T10:19:29.752Z,7.20
2018-09-04T10:21:59.154Z,6.93
2018-09-04T10:24:28.211Z,7.03
2018-09-04T10:26:57.439Z,7.20
2018-09-04T10:29:26.757Z,7.80
2018-09-04T10:31:55.767Z,7.63
2018-09-04T10:34:24.796Z,7.50
2018-09-04T10:36:53.828Z,7.93
2018-09-04T10:39:28.191Z,8.50
2018-09-04T10:41:57.243Z,7.87
2018-09-04T10:44:30.620Z,8.87
2018-09-04T10:46:59.796Z,8.57
2018-09-04T10:49:28.814Z,7.70
2018-09-04T10:51:57.898Z,7.77
2018-09-04T10:54:26.910Z,7.63
2018-09-04T10:56:55.988Z,7.43
2018-09-04T10:59:25.177Z,7.03
2018-09-04T11:01:54.373Z,8.77
2018-09-04T11:04:23.329Z,8.33
2018-09-04T11:06:52.353Z,7.73
2018-09-04T11:09:22.446Z,7.20
2018-09-04T11:11:52.234Z,6.60
2018-09-04T11:14:21.833Z,7.08
2018-09-04T11:16:51.627Z,7.70
2018-09-04T11:19:21.247Z,7.37
2018-09-04T11:21:50.817Z,7.33
2018-09-04T11:24:20.461Z,6.72
2018-09-04T11:26:50.070Z,6.65
2018-09-04T11:29:20.091Z,6.78
2018-09-04T11:31:49.766Z,7.30
2018-09-04T11:34:19.449Z,6.65
2018-09-04T11:36:49.065Z,7.05
2018-09-04T11:39:18.827Z,6.83
2018-09-04T11:41:48.846Z,7.50
2018-09-04T11:44:18.497Z,6.50
2018-09-04T11:46:48.135Z,6.70
2018-09-04T11:49:17.918Z,7.15
2018-09-04T11:51:47.481Z,8.15
2018-09-04T11:54:17.054Z,7.03
2018-09-04T11:56:46.618Z,6.92
2018-09-04T11:59:16.272Z,6.95
2018-09-04T12:01:49.298Z,7.17
2018-09-04T12:04:18.890Z,7.22
2018-09-04T12:06:48.479Z,7.40
2018-09-04T12:09:18.072Z,7.22
2018-09-04T12:11:51.911Z,7.20
2018-09-04T12:14:21.596Z,8.05
2018-09-04T12:16:51.223Z,7.90
2018-09-04T12:19:20.866Z,7.53
2018-09-04T12:21:50.618Z,6.90
2018-09-04T12:24:20.240Z,7.25
2018-09-04T12:26:49.868Z,7.12
2018-09-04T12:29:19.470Z,6.45
2018-09-04T12:31:49.075Z,7.35
2018-09-04T12:34:18.753Z,7.20
2018-09-04T12:36:48.368Z,7.47
2018-09-04T12:39:17.970Z,8.13
2018-09-04T12:41:50.023Z,8.30
2018-09-04T12:44:19.368Z,8.60
2018-09-04T12:46:49.137Z,9.75
2018-09-04T12:49:18.953Z,7.97
2018-09-04T12:51:48.808Z,8.50
2018-09-04T12:54:18.375Z,7.90
2018-09-04T12:56:48.032Z,8.20
2018-09-04T12:59:17.580Z,7.47
2018-09-04T13:01:47.210Z,7.60
2018-09-04T13:04:16.764Z,8.00
2018-09-04T13:06:46.343Z,7.83
2018-09-04T13:09:16.182Z,7.03
2018-09-04T13:11:46.092Z,6.97
2018-09-04T13:14:15.716Z,6.83
2018-09-04T13:16:45.510Z,7.20
2018-09-04T13:19:14.843Z,7.10
2018-09-04T13:21:44.503Z,7.53
2018-09-04T13:24:14.011Z,7.63
2018-09-04T13:26:43.335Z,7.60
2018-09-04T13:29:14.635Z,7.70
2018-09-04T13:31:44.440Z,7.95
2018-09-04T13:34:14.061Z,7.50
2018-09-04T13:36:43.765Z,7.40
2018-09-04T13:39:13.060Z,7.57
2018-09-04T13:41:42.409Z,7.53
2018-09-04T13:44:11.727Z,7.07
2018-09-04T13:46:41.072Z,7.83
2018-09-04T13:49:10.488Z,8.40
2018-09-04T13:51:39.956Z,8.33
2018-09-04T13:54:09.360Z,8.73
2018-09-04T13:56:38.725Z,7.43
2018-09-04T13:59:08.023Z,7.77
2018-09-04T14:01:37.484Z,8.70
2018-09-04T14:04:09.438Z,7.40
2018-09-04T14:06:39.360Z,8.57
2018-09-04T14:09:09.183Z,7.47
2018-09-04T14:11:39.062Z,7.53
2018-09-04T14:14:08.604Z,8.53
2018-09-04T14:16:43.152Z,8.03
2018-09-04T14:19:07.915Z,7.70
2018-09-04T14:21:37.580Z,7.70
2018-09-04T14:24:07.677Z,8.07
2018-09-04T14:26:36.950Z,7.70
2018-09-04T14:29:06.955Z,7.70
2018-09-04T14:31:35.758Z,7.83
2018-09-04T14:34:05.642Z,8.93
2018-09-04T14:36:35.050Z,9.27
2018-09-04T14:39:05.439Z,8.40
2018-09-04T14:41:35.016Z,8.60
2018-09-04T14:44:04.615Z,8.97
2018-09-04T14:46:33.971Z,8.40
2018-09-04T14:49:03.768Z,9.33
2018-09-04T14:51:33.088Z,8.70
2018-09-04T14:54:02.981Z,8.40
2018-09-04T14:56:32.282Z,9.10
2018-09-04T14:59:01.570Z,8.60
2018-09-04T15:01:30.913Z,9.10
2018-09-04T15:04:00.755Z,8.48
2018-09-04T15:06:30.367Z,8.43
2018-09-04T15:09:00.142Z,7.58
2018-09-04T15:11:29.757Z,7.12
2018-09-04T15:13:59.416Z,7.80
2018-09-04T15:16:29.105Z,7.65
2018-09-04T15:18:58.890Z,7.80
2018-09-04T15:21:28.910Z,8.18
2018-09-04T15:23:58.254Z,8.33
2018-09-04T15:26:27.576Z,7.80
2018-09-04T15:28:57.148Z,7.73
2018-09-04T15:31:26.569Z,7.90
2018-09-04T15:33:55.909Z,7.90
2018-09-04T15:36:25.422Z,8.37
2018-09-04T15:38:54.767Z,7.97
2018-09-04T15:41:24.077Z,8.07
2018-09-04T15:43:53.350Z,7.93
2018-09-04T15:46:22.710Z,7.80
2018-09-04T15:48:57.431Z,7.93
2018-09-04T15:51:26.760Z,8.37
2018-09-04T15:53:56.061Z,8.30
2018-09-04T15:56:25.380Z,8.50
2018-09-04T15:58:54.715Z,8.07
2018-09-04T16:01:24.308Z,7.60
2018-09-04T16:03:53.912Z,7.70
2018-09-04T16:06:23.532Z,7.55
2018-09-04T16:08:53.180Z,6.80
2018-09-04T16:11:22.763Z,7.65
2018-09-04T16:13:52.344Z,6.95
2018-09-04T16:16:21.925Z,7.28
2018-09-04T16:18:51.539Z,6.78
2018-09-04T16:21:21.129Z,7.15
2018-09-04T16:23:50.705Z,7.08
2018-09-04T16:26:20.790Z,7.33
2018-09-04T16:28:50.358Z,8.35
2018-09-04T16:31:19.943Z,6.80
2018-09-04T16:33:49.531Z,7.53
2018-09-04T16:36:19.163Z,7.45
2018-09-04T16:38:48.829Z,7.08
2018-09-04T16:41:18.725Z,7.62
2018-09-04T16:43:48.312Z,7.87
2018-09-04T16:46:18.288Z,7.12
2018-09-04T16:48:47.858Z,7.42
2018-09-04T16:51:16.891Z,7.03
2018-09-04T16:53:46.470Z,6.90
2018-09-04T16:56:16.021Z,7.60
2018-09-04T16:58:45.623Z,7.12
2018-09-04T17:01:15.243Z,6.85
2018-09-04T17:03:44.823Z,7.45
2018-09-04T17:06:14.470Z,8.15
2018-09-04T17:08:44.060Z,7.90
2018-09-04T17:11:13.641Z,8.20
2018-09-04T17:13:43.359Z,7.40
2018-09-04T17:16:13.160Z,7.42
2018-09-04T17:18:42.473Z,7.90
2018-09-04T17:21:11.468Z,7.93
2018-09-04T17:23:40.514Z,7.47
2018-09-04T17:26:09.573Z,8.43
2018-09-04T17:28:38.654Z,7.97
2018-09-04T17:31:07.738Z,7.10
2018-09-04T17:33:36.731Z,7.97
2018-09-04T17:36:06.163Z,7.63
2018-09-04T17:38:35.171Z,7.40
2018-09-04T17:41:04.750Z,6.90
2018-09-04T17:43:33.758Z,7.73
2018-09-04T17:46:02.773Z,7.63
2018-09-04T17:48:32.027Z,8.03
2018-09-04T17:51:01.065Z,7.70
2018-09-04T17:53:30.360Z,7.57
2018-09-04T17:55:59.392Z,7.90
2018-09-04T17:58:28.383Z,7.93
2018-09-04T18:00:57.532Z,8.13
2018-09-04T18:03:26.780Z,7.37
2018-09-04T18:05:55.854Z,7.83
2018-09-04T18:08:24.912Z,8.47
2018-09-04T18:10:53.976Z,7.93
2018-09-04T18:13:23.307Z,7.57
2018-09-04T18:15:52.347Z,7.37
2018-09-04T18:18:21.532Z,7.93
2018-09-04T18:20:50.767Z,8.10
2018-09-04T18:23:19.835Z,7.93
2018-09-04T18:25:48.899Z,7.63
2018-09-04T18:28:18.201Z,8.63
2018-09-04T18:30:47.287Z,8.27
2018-09-04T18:33:16.278Z,7.87
2018-09-04T18:35:45.400Z,8.33
2018-09-04T18:38:14.439Z,8.17
2018-09-04T18:40:43.548Z,7.80
2018-09-04T18:43:12.616Z,7.67
2018-09-04T18:45:54.512Z,8.50
2018-09-04T18:48:23.856Z,7.83
2018-09-04T18:50:53.070Z,8.17
2018-09-04T18:53:22.159Z,8.33
2018-09-04T18:55:51.480Z,7.93
2018-09-04T18:58:20.515Z,7.77
2018-09-04T19:00:49.923Z,8.40
2018-09-04T19:03:19.349Z,8.53
2018-09-04T19:05:48.378Z,8.00
2018-09-04T19:08:17.363Z,8.50
2018-09-04T19:10:46.493Z,8.20
2018-09-04T19:13:15.486Z,8.17
2018-09-04T19:15:44.526Z,8.80
2018-09-04T19:18:13.991Z,8.00
2018-09-04T19:20:43.045Z,8.40
2018-09-04T19:23:12.053Z,10.33
2018-09-04T19:25:41.078Z,9.80
2018-09-04T19:28:10.136Z,8.83
2018-09-04T19:30:39.174Z,9.07
2018-09-04T19:33:08.435Z,9.77
2018-09-04T19:35:37.470Z,8.40
2018-09-04T19:38:06.969Z,8.80
2018-09-04T19:40:36.018Z,8.17
2018-09-04T19:43:05.288Z,8.57
2018-09-04T19:45:34.431Z,8.60
2018-09-04T19:48:03.531Z,8.70
2018-09-04T19:50:33.031Z,9.00
2018-09-04T19:53:02.082Z,9.20
2018-09-04T19:55:31.347Z,9.20
2018-09-04T19:58:00.806Z,8.87
2018-09-04T20:00:29.904Z,9.47
2018-09-04T20:02:59.008Z,8.87
2018-09-04T20:05:28.748Z,9.20
2018-09-04T20:07:57.818Z,8.60
2018-09-04T20:10:26.851Z,9.20
2018-09-04T20:12:55.908Z,9.33
2018-09-04T20:15:25.110Z,8.93
2018-09-04T20:17:54.114Z,8.73
2018-09-04T20:20:23.288Z,8.53
2018-09-04T20:22:52.580Z,9.00
2018-09-04T20:25:21.730Z,8.37
2018-09-04T20:27:51.011Z,9.03
2018-09-04T20:30:20.348Z,8.53
2018-09-04T20:32:49.627Z,9.17
2018-09-04T20:35:18.691Z,8.27
2018-09-04T20:37:49.160Z,9.37
2018-09-04T20:40:18.254Z,9.20
2018-09-04T20:42:47.641Z,9.00
2018-09-04T20:45:16.692Z,8.80
2018-09-04T20:47:45.990Z,8.80
2018-09-04T20:50:15.058Z,9.47
2018-09-04T20:52:44.835Z,8.80
2018-09-04T20:55:14.092Z,9.07
2018-09-04T20:57:42.550Z,9.20
2018-09-04T21:00:24.548Z,8.73
2018-09-04T21:03:04.844Z,9.07
2018-09-04T21:05:46.219Z,9.13
2018-09-04T21:08:22.138Z,9.27
2018-09-04T21:10:52.165Z,9.60
2018-09-04T21:13:21.288Z,8.67
2018-09-04T21:15:50.392Z,9.20
2018-09-04T21:18:19.451Z,9.23
2018-09-04T21:20:48.512Z,9.53
2018-09-04T21:23:17.576Z,8.93
2018-09-04T21:25:46.586Z,10.07
2018-09-04T21:28:15.686Z,9.00
2018-09-04T21:30:44.729Z,9.40
2018-09-04T21:33:14.045Z,9.93
2018-09-04T21:35:43.590Z,9.30
2018-09-04T21:38:12.884Z,9.17
2018-09-04T21:40:42.877Z,9.83
2018-09-04T21:43:12.325Z,10.37
2018-09-04T21:45:41.347Z,8.87
2018-09-04T21:48:10.399Z,9.33
2018-09-04T21:50:39.703Z,9.33
2018-09-04T21:53:08.950Z,9.07
2018-09-04T21:55:38.001Z,9.40
2018-09-04T21:58:07.617Z,9.47
2018-09-04T22:00:37.041Z,9.60
2018-09-04T22:03:06.131Z,9.57
2018-09-04T22:05:35.203Z,9.70
2018-09-04T22:08:04.782Z,9.27
2018-09-04T22:10:34.059Z,9.80
2018-09-04T22:13:03.143Z,9.43
2018-09-04T22:15:32.299Z,9.23
2018-09-04T22:18:01.424Z,9.60
2018-09-04T22:20:30.472Z,9.53
2018-09-04T22:22:59.530Z,10.43
2018-09-04T22:25:30.230Z,9.67
2018-09-04T22:27:59.266Z,10.50
2018-09-04T22:30:28.327Z,9.73
2018-09-04T22:32:57.549Z,9.80
2018-09-04T22:35:26.625Z,10.00
2018-09-04T22:37:55.683Z,10.00
2018-09-04T22:40:24.706Z,10.63
2018-09-04T22:42:53.802Z,10.43
2018-09-04T22:45:22.889Z,10.60
2018-09-04T22:47:51.959Z,10.90
2018-09-04T22:50:26.339Z,10.90
2018-09-04T22:52:55.407Z,10.47
2018-09-04T22:55:24.468Z,10.40
2018-09-04T22:57:53.507Z,10.80
2018-09-04T23:00:22.750Z,10.40
2018-09-04T23:02:51.825Z,9.73
2018-09-04T23:05:20.877Z,10.17
2018-09-04T23:07:49.921Z,10.90
2018-09-04T23:10:18.985Z,10.90
2018-09-04T23:12:48.197Z,10.73
2018-09-04T23:15:17.245Z,10.73
2018-09-04T23:17:46.303Z,11.47
2018-09-04T23:20:15.345Z,11.03
2018-09-04T23:22:44.412Z,11.00
2018-09-04T23:25:13.458Z,10.90
2018-09-04T23:27:42.535Z,11.10
2018-09-04T23:30:11.577Z,11.80
2018-09-04T23:32:41.175Z,11.70
2018-09-04T23:35:10.589Z,10.93
2018-09-04T23:37:39.693Z,11.60
2018-09-04T23:40:08.702Z,11.17
2018-09-04T23:42:37.753Z,11.07
2018-09-04T23:45:06.832Z,12.00
2018-09-04T23:47:35.827Z,11.17
2018-09-04T23:50:06.706Z,11.73
2018-09-04T23:52:35.825Z,11.53
2018-09-04T23:55:05.164Z,11.93
2018-09-04T23:57:34.203Z,12.30
